createdAt,value
2018-07-25T00:02:06.803Z,12.90
2018-07-25T00:04:35.446Z,12.70
2018-07-25T00:07:04.064Z,11.93
2018-07-25T00:09:32.696Z,11.73
2018-07-25T00:12:01.312Z,11.70
2018-07-25T00:14:29.901Z,13.57
2018-07-25T00:16:58.578Z,12.60
2018-07-25T00:19:27.235Z,12.83
2018-07-25T00:21:55.857Z,11.93
2018-07-25T00:24:24.554Z,13.70
2018-07-25T00:26:53.214Z,12.80
2018-07-25T00:29:21.814Z,12.80
2018-07-25T00:31:50.507Z,11.83
2018-07-25T00:34:19.216Z,12.07
2018-07-25T00:36:47.895Z,13.47
2018-07-25T00:39:16.516Z,13.03
2018-07-25T00:41:45.159Z,12.63
2018-07-25T00:44:13.785Z,12.33
2018-07-25T00:46:42.446Z,11.87
2018-07-25T00:49:11.084Z,12.50
2018-07-25T00:51:39.715Z,12.43
2018-07-25T00:54:08.426Z,12.03
2018-07-25T00:56:37.109Z,13.80
2018-07-25T00:59:05.830Z,13.53
2018-07-25T01:01:34.474Z,13.10
2018-07-25T01:04:03.147Z,14.20
2018-07-25T01:06:31.907Z,14.27
2018-07-25T01:09:00.502Z,13.33
2018-07-25T01:11:29.247Z,12.27
2018-07-25T01:13:57.852Z,13.47
2018-07-25T01:16:26.654Z,12.60
2018-07-25T01:18:55.234Z,13.50
2018-07-25T01:21:23.847Z,12.90
2018-07-25T01:23:52.534Z,13.47
2018-07-25T01:26:21.309Z,11.97
2018-07-25T01:28:50.032Z,12.90
2018-07-25T01:31:19.487Z,12.77
2018-07-25T01:33:48.299Z,12.73
2018-07-25T01:36:17.011Z,13.30
2018-07-25T01:38:45.613Z,12.30
2018-07-25T01:41:14.182Z,13.50
2018-07-25T01:43:42.866Z,12.93
2018-07-25T01:46:11.455Z,13.90
2018-07-25T01:48:40.093Z,13.67
2018-07-25T01:51:08.707Z,14.17
2018-07-25T01:53:37.349Z,12.47
2018-07-25T01:56:06.355Z,13.10
2018-07-25T01:58:34.990Z,13.67
2018-07-25T02:01:03.601Z,12.97
2018-07-25T02:03:32.218Z,14.77
2018-07-25T02:06:00.902Z,14.50
2018-07-25T02:08:29.526Z,13.77
2018-07-25T02:10:58.105Z,14.87
2018-07-25T02:13:26.680Z,14.30
2018-07-25T02:15:55.280Z,14.20
2018-07-25T02:18:23.859Z,14.00
2018-07-25T02:20:52.625Z,14.17
2018-07-25T02:23:21.185Z,14.57
2018-07-25T02:25:49.754Z,13.87
2018-07-25T02:28:18.374Z,13.60
2018-07-25T02:30:47.099Z,13.80
2018-07-25T02:33:15.689Z,13.23
2018-07-25T02:35:44.267Z,15.07
2018-07-25T02:38:12.771Z,13.50
2018-07-25T02:40:41.353Z,13.87
2018-07-25T02:43:09.885Z,13.30
2018-07-25T02:45:43.883Z,12.93
2018-07-25T02:48:12.519Z,13.90
2018-07-25T02:50:41.280Z,14.80
2018-07-25T02:53:09.927Z,14.50
2018-07-25T02:55:38.526Z,14.40
2018-07-25T02:58:07.160Z,14.07
2018-07-25T03:00:35.779Z,14.40
2018-07-25T03:03:04.453Z,13.50
2018-07-25T03:05:33.155Z,14.20
2018-07-25T03:08:01.861Z,14.00
2018-07-25T03:10:30.473Z,14.83
2018-07-25T03:12:59.190Z,14.13
2018-07-25T03:15:28.428Z,12.80
2018-07-25T03:17:57.034Z,13.03
2018-07-25T03:20:25.668Z,12.60
2018-07-25T03:22:54.299Z,12.83
2018-07-25T03:25:22.908Z,13.33
2018-07-25T03:27:51.565Z,12.90
2018-07-25T03:30:20.315Z,14.70
2018-07-25T03:32:48.919Z,13.00
2018-07-25T03:35:17.782Z,13.00
2018-07-25T03:37:46.366Z,13.53
2018-07-25T03:40:14.942Z,13.40
2018-07-25T03:42:43.542Z,13.07
2018-07-25T03:45:12.111Z,14.23
2018-07-25T03:47:40.667Z,12.57
2018-07-25T03:50:09.348Z,14.30
2018-07-25T03:52:38.091Z,14.43
2018-07-25T03:55:06.714Z,13.60
2018-07-25T03:57:36.918Z,13.30
2018-07-25T04:00:05.927Z,14.47
2018-07-25T04:02:34.597Z,13.27
2018-07-25T04:05:03.166Z,13.70
2018-07-25T04:07:31.705Z,13.50
2018-07-25T04:10:00.370Z,13.33
2018-07-25T04:12:29.008Z,13.73
2018-07-25T04:14:57.512Z,13.10
2018-07-25T04:17:30.507Z,13.93
2018-07-25T04:20:00.920Z,13.40
2018-07-25T04:22:30.493Z,13.60
2018-07-25T04:24:59.162Z,12.20
2018-07-25T04:27:27.736Z,13.27
2018-07-25T04:29:56.359Z,13.57
2018-07-25T04:32:24.943Z,13.23
2018-07-25T04:34:53.722Z,13.40
2018-07-25T04:37:22.318Z,12.93
2018-07-25T04:39:50.904Z,13.63
2018-07-25T04:42:19.841Z,14.00
2018-07-25T04:44:48.542Z,13.63
2018-07-25T04:47:17.136Z,13.13
2018-07-25T04:49:46.105Z,13.00
2018-07-25T04:52:15.132Z,12.63
2018-07-25T04:54:43.855Z,12.40
2018-07-25T04:57:12.573Z,12.47
2018-07-25T04:59:41.424Z,12.40
2018-07-25T05:02:10.357Z,12.87
2018-07-25T05:04:39.062Z,12.30
2018-07-25T05:07:07.647Z,12.80
2018-07-25T05:09:36.244Z,13.80
2018-07-25T05:12:04.912Z,13.10
2018-07-25T05:14:33.454Z,11.43
2018-07-25T05:17:02.050Z,11.50
2018-07-25T05:19:30.623Z,10.33
2018-07-25T05:21:59.190Z,10.20
2018-07-25T05:24:27.788Z,10.00
2018-07-25T05:26:56.447Z,9.63
2018-07-25T05:29:25.097Z,10.53
2018-07-25T05:31:53.836Z,10.53
2018-07-25T05:34:22.469Z,10.30
2018-07-25T05:36:51.099Z,9.87
2018-07-25T05:39:19.727Z,10.80
2018-07-25T05:41:48.334Z,12.00
2018-07-25T05:44:16.870Z,10.87
2018-07-25T05:46:45.471Z,11.87
2018-07-25T05:49:14.157Z,11.50
2018-07-25T05:51:42.786Z,11.67
2018-07-25T05:54:11.396Z,11.47
2018-07-25T05:56:40.051Z,11.07
2018-07-25T05:59:08.638Z,11.23
2018-07-25T06:01:37.299Z,9.40
2018-07-25T06:04:05.942Z,10.50
2018-07-25T06:06:34.587Z,11.40
2018-07-25T06:09:03.447Z,9.73
2018-07-25T06:11:32.068Z,9.60
2018-07-25T06:14:00.618Z,9.50
2018-07-25T06:16:29.307Z,9.43
2018-07-25T06:18:57.845Z,10.60
2018-07-25T06:21:26.494Z,10.27
2018-07-25T06:23:55.142Z,10.97
2018-07-25T06:26:23.814Z,10.90
2018-07-25T06:28:52.450Z,9.53
2018-07-25T06:31:21.060Z,10.90
2018-07-25T06:33:49.678Z,11.00
2018-07-25T06:36:18.235Z,8.73
2018-07-25T06:38:46.930Z,10.57
2018-07-25T06:41:15.771Z,10.10
2018-07-25T06:43:44.529Z,10.20
2018-07-25T06:46:13.306Z,9.20
2018-07-25T06:48:41.893Z,9.53
2018-07-25T06:51:10.182Z,9.27
2018-07-25T06:53:39.127Z,11.43
2018-07-25T06:56:07.764Z,11.60
2018-07-25T06:58:36.331Z,10.97
2018-07-25T07:01:04.916Z,11.47
2018-07-25T07:03:33.618Z,9.90
2018-07-25T07:06:02.210Z,9.30
2018-07-25T07:08:31.866Z,9.33
2018-07-25T07:11:00.469Z,8.20
2018-07-25T07:13:29.025Z,8.70
2018-07-25T07:15:57.572Z,7.50
2018-07-25T07:18:26.213Z,8.43
2018-07-25T07:20:54.830Z,7.80
2018-07-25T07:23:23.414Z,9.70
2018-07-25T07:25:52.075Z,8.13
2018-07-25T07:28:20.584Z,8.30
2018-07-25T07:30:49.273Z,9.10
2018-07-25T07:33:17.881Z,9.47
2018-07-25T07:35:46.402Z,8.10
2018-07-25T07:38:14.966Z,8.90
2018-07-25T07:40:43.708Z,10.50
2018-07-25T07:43:12.332Z,10.13
2018-07-25T07:45:40.866Z,9.17
2018-07-25T07:48:09.455Z,8.33
2018-07-25T07:50:38.130Z,8.93
2018-07-25T07:53:06.642Z,8.10
2018-07-25T07:55:35.082Z,8.80
2018-07-25T07:58:03.575Z,8.07
2018-07-25T08:00:32.067Z,8.67
2018-07-25T08:03:00.534Z,8.50
2018-07-25T08:05:28.966Z,7.17
2018-07-25T08:07:57.424Z,7.60
2018-07-25T08:10:25.893Z,8.50
2018-07-25T08:12:54.378Z,7.27
2018-07-25T08:15:22.820Z,8.20
2018-07-25T08:17:51.276Z,7.00
2018-07-25T08:20:19.810Z,7.60
2018-07-25T08:22:48.261Z,7.00
2018-07-25T08:25:16.691Z,7.60
2018-07-25T08:27:45.242Z,6.87
2018-07-25T08:30:13.926Z,7.40
2018-07-25T08:32:42.560Z,7.00
2018-07-25T08:35:12.250Z,7.43
2018-07-25T08:37:40.834Z,6.97
2018-07-25T08:40:09.397Z,6.40
2018-07-25T08:42:38.090Z,7.57
2018-07-25T08:45:07.271Z,7.43
2018-07-25T08:47:35.790Z,7.00
2018-07-25T08:50:05.192Z,6.77
2018-07-25T08:52:33.695Z,6.50
2018-07-25T08:55:02.116Z,7.20
2018-07-25T08:57:30.558Z,6.63
2018-07-25T08:59:59.005Z,6.13
2018-07-25T09:02:27.465Z,6.80
2018-07-25T09:04:55.919Z,6.90
2018-07-25T09:07:24.394Z,6.53
2018-07-25T09:09:52.841Z,6.50
2018-07-25T09:12:21.345Z,6.60
2018-07-25T09:14:49.781Z,6.83
2018-07-25T09:17:18.224Z,5.70
2018-07-25T09:19:46.712Z,6.00
2018-07-25T09:22:15.142Z,6.23
2018-07-25T09:24:43.614Z,5.60
2018-07-25T09:27:12.089Z,5.90
2018-07-25T09:29:40.530Z,5.60
2018-07-25T09:32:09.025Z,6.87
2018-07-25T09:34:37.635Z,6.30
2018-07-25T09:37:06.130Z,6.30
2018-07-25T09:39:34.744Z,6.60
2018-07-25T09:42:03.241Z,6.10
2018-07-25T09:44:31.672Z,6.40
2018-07-25T09:47:00.228Z,6.40
2018-07-25T09:49:28.682Z,5.53
2018-07-25T09:51:57.134Z,4.80
2018-07-25T09:54:25.580Z,6.03
2018-07-25T09:56:54.050Z,5.90
2018-07-25T09:59:22.499Z,6.10
2018-07-25T10:01:51.067Z,5.07
2018-07-25T10:04:19.535Z,5.40
2018-07-25T10:06:48.038Z,4.77
2018-07-25T10:09:16.509Z,5.37
2018-07-25T10:11:44.962Z,5.97
2018-07-25T10:14:13.418Z,4.77
2018-07-25T10:16:41.882Z,5.50
2018-07-25T10:19:10.461Z,5.10
2018-07-25T10:21:38.937Z,5.00
2018-07-25T10:24:07.438Z,4.53
2018-07-25T10:26:35.963Z,4.90
2018-07-25T10:29:04.666Z,5.20
2018-07-25T10:31:33.598Z,4.30
2018-07-25T10:34:11.960Z,4.50
2018-07-25T10:36:41.408Z,4.77
2018-07-25T10:39:10.856Z,4.83
2018-07-25T10:41:39.542Z,5.00
2018-07-25T10:44:08.214Z,4.60
2018-07-25T10:46:46.984Z,4.60
2018-07-25T10:49:15.695Z,4.97
2018-07-25T10:51:44.430Z,3.50
2018-07-25T10:54:13.170Z,4.40
2018-07-25T10:56:41.369Z,4.10
2018-07-25T10:59:09.871Z,4.23
2018-07-25T11:01:38.396Z,3.50
2018-07-25T11:04:07.028Z,3.80
2018-07-25T11:06:35.595Z,3.80
2018-07-25T11:09:24.109Z,5.20
2018-07-25T11:11:52.551Z,4.30
2018-07-25T11:14:20.994Z,4.27
2018-07-25T11:16:49.482Z,4.30
2018-07-25T11:19:17.938Z,3.80
2018-07-25T11:21:46.370Z,3.73
2018-07-25T11:24:14.842Z,4.47
2018-07-25T11:26:43.263Z,3.87
2018-07-25T11:29:11.886Z,3.40
2018-07-25T11:31:40.321Z,4.23
2018-07-25T11:34:08.764Z,3.73
2018-07-25T11:36:37.197Z,3.60
2018-07-25T11:39:08.570Z,3.73
2018-07-25T11:41:37.030Z,3.80
2018-07-25T11:44:05.615Z,4.33
2018-07-25T11:46:34.038Z,4.03
2018-07-25T11:49:02.602Z,3.80
2018-07-25T11:51:31.050Z,4.07
2018-07-25T11:53:59.176Z,4.63
2018-07-25T11:56:27.606Z,3.90
2018-07-25T11:58:56.058Z,5.27
2018-07-25T12:01:26.588Z,5.17
2018-07-25T12:03:55.324Z,5.47
2018-07-25T12:06:24.070Z,5.43
2018-07-25T12:08:52.757Z,4.90
2018-07-25T12:11:21.230Z,5.30
2018-07-25T12:13:49.757Z,5.00
2018-07-25T12:16:18.405Z,5.37
2018-07-25T12:18:47.114Z,4.60
2018-07-25T12:21:15.918Z,5.20
2018-07-25T12:23:44.417Z,4.90
2018-07-25T12:26:12.894Z,4.53
2018-07-25T12:28:41.358Z,4.30
2018-07-25T12:31:09.846Z,3.60
2018-07-25T12:33:38.358Z,3.70
2018-07-25T12:36:07.030Z,4.07
2018-07-25T12:38:35.205Z,4.23
2018-07-25T12:41:03.694Z,3.70
2018-07-25T12:43:31.861Z,3.93
2018-07-25T12:46:00.373Z,4.60
2018-07-25T12:48:28.917Z,4.27
2018-07-25T12:50:57.277Z,3.63
2018-07-25T12:53:25.759Z,4.40
2018-07-25T12:55:54.295Z,4.10
2018-07-25T12:58:22.790Z,3.97
2018-07-25T13:00:51.257Z,4.90
2018-07-25T13:03:19.762Z,5.53
2018-07-25T13:06:05.799Z,4.50
2018-07-25T13:08:34.282Z,4.90
2018-07-25T13:11:02.825Z,4.37
2018-07-25T13:13:31.254Z,4.80
2018-07-25T13:15:59.743Z,4.93
2018-07-25T13:18:28.185Z,4.30
2018-07-25T13:20:56.686Z,4.83
2018-07-25T13:23:24.809Z,5.00
2018-07-25T13:25:53.286Z,5.60
2018-07-25T13:28:21.787Z,5.37
2018-07-25T13:30:50.186Z,5.70
2018-07-25T13:33:18.649Z,4.60
2018-07-25T13:35:47.097Z,5.10
2018-07-25T13:38:15.529Z,4.00
2018-07-25T13:40:43.970Z,4.90
2018-07-25T13:43:12.510Z,5.07
2018-07-25T13:45:41.062Z,4.90
2018-07-25T13:48:09.773Z,4.23
2018-07-25T13:50:38.278Z,3.80
2018-07-25T13:53:06.813Z,4.00
2018-07-25T13:55:35.286Z,3.27
2018-07-25T13:58:03.774Z,4.37
2018-07-25T14:00:32.237Z,3.63
2018-07-25T14:03:00.706Z,3.80
2018-07-25T14:05:29.386Z,3.90
2018-07-25T14:07:57.834Z,4.37
2018-07-25T14:10:26.265Z,4.00
2018-07-25T14:12:54.729Z,3.97
2018-07-25T14:15:23.669Z,3.97
2018-07-25T14:17:52.149Z,3.53
2018-07-25T14:20:21.490Z,4.30
2018-07-25T14:22:49.948Z,4.30
2018-07-25T14:25:19.109Z,4.80
2018-07-25T14:27:47.583Z,4.53
2018-07-25T14:30:16.155Z,4.27
2018-07-25T14:32:44.544Z,4.87
2018-07-25T14:35:13.014Z,4.30
2018-07-25T14:37:41.608Z,4.80
2018-07-25T14:40:10.400Z,4.30
2018-07-25T14:42:38.958Z,5.37
2018-07-25T14:45:07.460Z,4.43
2018-07-25T14:47:35.966Z,4.90
2018-07-25T14:50:04.829Z,4.40
2018-07-25T14:52:33.330Z,4.57
2018-07-25T14:55:01.874Z,4.63
2018-07-25T14:57:30.362Z,4.27
2018-07-25T14:59:59.022Z,4.50
2018-07-25T15:02:28.612Z,4.23
2018-07-25T15:05:06.261Z,4.87
2018-07-25T15:07:35.635Z,4.30
2018-07-25T15:10:04.840Z,4.67
2018-07-25T15:12:39.677Z,4.57
2018-07-25T15:15:08.170Z,4.70
2018-07-25T15:17:37.044Z,4.60
2018-07-25T15:20:06.615Z,4.60
2018-07-25T15:22:35.131Z,4.43
2018-07-25T15:25:03.744Z,4.60
2018-07-25T15:27:32.370Z,4.67
2018-07-25T15:30:00.882Z,4.40
2018-07-25T15:32:29.443Z,4.40
2018-07-25T15:34:58.008Z,4.40
2018-07-25T15:37:26.538Z,4.70
2018-07-25T15:39:56.806Z,4.30
2018-07-25T15:42:25.385Z,4.00
2018-07-25T15:44:53.890Z,3.80
2018-07-25T15:47:22.454Z,4.17
2018-07-25T15:49:51.173Z,4.00
2018-07-25T15:52:19.707Z,4.40
2018-07-25T15:54:48.207Z,4.47
2018-07-25T15:57:16.759Z,4.40
2018-07-25T15:59:45.321Z,4.40
2018-07-25T16:02:13.904Z,3.80
2018-07-25T16:04:42.403Z,4.50
2018-07-25T16:07:10.958Z,4.33
2018-07-25T16:09:39.504Z,7.03
2018-07-25T16:12:08.014Z,4.47
2018-07-25T16:14:36.522Z,4.30
2018-07-25T16:17:05.108Z,4.53
2018-07-25T16:19:33.609Z,4.60
2018-07-25T16:22:02.141Z,4.63
2018-07-25T16:24:30.726Z,4.50
2018-07-25T16:26:59.165Z,4.03
2018-07-25T16:29:27.662Z,4.80
2018-07-25T16:31:56.214Z,5.00
2018-07-25T16:34:24.685Z,4.63
2018-07-25T16:36:53.179Z,4.43
2018-07-25T16:39:21.720Z,4.60
2018-07-25T16:41:50.222Z,4.30
2018-07-25T16:44:19.599Z,5.60
2018-07-25T16:46:48.764Z,14.23
2018-07-25T16:49:17.262Z,5.70
2018-07-25T16:51:45.778Z,42.37
2018-07-25T16:54:14.301Z,16.10
2018-07-25T16:56:42.789Z,14.20
2018-07-25T16:59:11.290Z,17.33
2018-07-25T17:01:39.846Z,9.10
2018-07-25T17:04:08.354Z,7.63
2018-07-25T17:06:36.833Z,7.80
2018-07-25T17:09:16.516Z,5.83
2018-07-25T17:11:45.218Z,5.40
2018-07-25T17:14:13.725Z,5.70
2018-07-25T17:16:42.321Z,5.10
2018-07-25T17:19:10.832Z,5.50
2018-07-25T17:21:39.335Z,5.00
2018-07-25T17:24:07.815Z,5.63
2018-07-25T17:26:36.303Z,5.23
2018-07-25T17:29:04.832Z,4.83
2018-07-25T17:31:33.321Z,5.07
2018-07-25T17:34:01.830Z,5.53
2018-07-25T17:36:30.334Z,4.53
2018-07-25T17:38:58.831Z,5.20
2018-07-25T17:41:27.328Z,5.03
2018-07-25T17:43:55.809Z,5.40
2018-07-25T17:46:24.359Z,4.70
2018-07-25T17:48:52.827Z,5.00
2018-07-25T17:51:21.285Z,4.43
2018-07-25T17:53:49.828Z,4.90
2018-07-25T17:56:18.383Z,4.57
2018-07-25T17:58:47.592Z,5.07
2018-07-25T18:01:16.099Z,4.90
2018-07-25T18:03:44.684Z,5.10
2018-07-25T18:06:13.119Z,5.00
2018-07-25T18:08:42.162Z,5.03
2018-07-25T18:11:10.693Z,4.50
2018-07-25T18:13:44.517Z,4.67
2018-07-25T18:16:13.009Z,5.00
2018-07-25T18:18:42.233Z,5.13
2018-07-25T18:21:10.781Z,5.33
2018-07-25T18:23:39.221Z,6.50
2018-07-25T18:26:07.745Z,8.10
2018-07-25T18:28:36.228Z,6.17
2018-07-25T18:31:04.809Z,6.20
2018-07-25T18:33:33.347Z,6.10
2018-07-25T18:36:01.814Z,5.80
2018-07-25T18:38:30.312Z,5.70
2018-07-25T18:40:58.818Z,5.40
2018-07-25T18:43:27.421Z,5.40
2018-07-25T18:45:55.893Z,5.77
2018-07-25T18:48:24.376Z,5.87
2018-07-25T18:50:52.887Z,6.10
2018-07-25T18:53:21.351Z,5.67
2018-07-25T18:55:49.834Z,6.37
2018-07-25T18:58:18.425Z,5.97
2018-07-25T19:00:47.194Z,10.23
2018-07-25T19:03:15.869Z,14.27
2018-07-25T19:05:44.529Z,12.80
2018-07-25T19:08:18.131Z,13.17
2018-07-25T19:10:46.619Z,10.43
2018-07-25T19:13:20.520Z,8.60
2018-07-25T19:15:49.033Z,8.70
2018-07-25T19:18:17.546Z,6.40
2018-07-25T19:20:46.014Z,6.60
2018-07-25T19:23:14.478Z,6.40
2018-07-25T19:25:42.946Z,6.00
2018-07-25T19:28:11.451Z,5.40
2018-07-25T19:30:39.895Z,5.90
2018-07-25T19:33:08.465Z,5.80
2018-07-25T19:35:38.141Z,6.07
2018-07-25T19:38:06.894Z,6.10
2018-07-25T19:40:35.418Z,5.10
2018-07-25T19:43:03.972Z,7.77
2018-07-25T19:45:32.461Z,6.37
2018-07-25T19:48:00.905Z,6.70
2018-07-25T19:50:29.403Z,7.30
2018-07-25T19:52:57.878Z,7.10
2018-07-25T19:55:26.374Z,6.70
2018-07-25T19:57:54.848Z,6.20
2018-07-25T20:00:23.318Z,6.03
2018-07-25T20:02:52.067Z,6.13
2018-07-25T20:05:20.553Z,6.43
2018-07-25T20:07:50.114Z,6.97
2018-07-25T20:10:18.638Z,7.30
2018-07-25T20:12:47.143Z,6.10
2018-07-25T20:15:20.766Z,7.20
2018-07-25T20:17:49.284Z,6.93
2018-07-25T20:20:17.809Z,6.60
2018-07-25T20:22:46.286Z,6.97
2018-07-25T20:25:16.010Z,7.03
2018-07-25T20:27:44.669Z,7.63
2018-07-25T20:30:13.185Z,6.53
2018-07-25T20:32:41.810Z,7.30
2018-07-25T20:35:10.469Z,7.23
2018-07-25T20:37:39.016Z,7.17
2018-07-25T20:40:07.991Z,8.37
2018-07-25T20:42:36.647Z,8.77
2018-07-25T20:45:06.071Z,7.47
2018-07-25T20:47:34.544Z,7.57
2018-07-25T20:50:03.098Z,7.67
2018-07-25T20:52:31.744Z,7.97
2018-07-25T20:55:00.288Z,7.63
2018-07-25T20:57:28.804Z,8.10
2018-07-25T20:59:57.312Z,7.30
2018-07-25T21:02:25.859Z,7.80
2018-07-25T21:04:55.074Z,8.17
2018-07-25T21:07:23.657Z,8.67
2018-07-25T21:09:52.110Z,8.07
2018-07-25T21:12:21.337Z,7.77
2018-07-25T21:14:49.825Z,8.40
2018-07-25T21:17:18.280Z,8.87
2018-07-25T21:19:46.818Z,8.13
2018-07-25T21:22:15.294Z,8.10
2018-07-25T21:24:43.809Z,7.83
2018-07-25T21:27:12.393Z,8.17
2018-07-25T21:29:40.880Z,7.70
2018-07-25T21:32:09.412Z,8.50
2018-07-25T21:34:37.981Z,11.70
2018-07-25T21:37:06.482Z,7.50
2018-07-25T21:39:35.001Z,8.07
2018-07-25T21:42:03.539Z,7.97
2018-07-25T21:44:32.029Z,8.10
2018-07-25T21:47:00.541Z,8.50
2018-07-25T21:49:29.030Z,8.37
2018-07-25T21:51:57.495Z,7.57
2018-07-25T21:54:26.037Z,9.10
2018-07-25T21:56:54.534Z,8.77
2018-07-25T21:59:23.245Z,7.70
2018-07-25T22:01:51.762Z,8.63
2018-07-25T22:04:20.216Z,8.27
2018-07-25T22:06:48.721Z,7.80
2018-07-25T22:09:17.192Z,8.77
2018-07-25T22:11:45.658Z,8.33
2018-07-25T22:14:14.132Z,8.83
2018-07-25T22:16:42.576Z,8.00
2018-07-25T22:19:11.043Z,7.53
2018-07-25T22:21:39.540Z,7.13
2018-07-25T22:24:09.808Z,8.10
2018-07-25T22:26:38.287Z,8.40
2018-07-25T22:29:06.927Z,7.63
2018-07-25T22:31:35.474Z,8.07
2018-07-25T22:34:03.625Z,8.40
2018-07-25T22:36:32.117Z,8.27
2018-07-25T22:39:00.701Z,8.20
2018-07-25T22:41:29.201Z,8.03
2018-07-25T22:43:57.669Z,7.93
2018-07-25T22:46:26.191Z,8.33
2018-07-25T22:48:54.712Z,8.77
2018-07-25T22:51:23.190Z,8.50
2018-07-25T22:53:52.472Z,8.07
2018-07-25T22:56:20.929Z,7.83
2018-07-25T22:58:49.439Z,8.07
2018-07-25T23:01:18.871Z,8.80
2018-07-25T23:03:47.409Z,8.40
2018-07-25T23:06:15.899Z,7.83
2018-07-25T23:08:44.362Z,8.10
2018-07-25T23:11:12.856Z,7.93
2018-07-25T23:13:47.525Z,8.00
2018-07-25T23:16:16.758Z,9.23
2018-07-25T23:18:45.789Z,8.43
2018-07-25T23:21:14.274Z,9.80
2018-07-25T23:23:42.891Z,8.40
2018-07-25T23:26:11.349Z,8.93
2018-07-25T23:28:39.834Z,8.00
2018-07-25T23:31:08.336Z,8.57
2018-07-25T23:33:36.820Z,8.90
2018-07-25T23:36:05.272Z,8.60
2018-07-25T23:38:33.749Z,8.90
2018-07-25T23:41:02.311Z,8.33
2018-07-25T23:43:30.744Z,9.20
2018-07-25T23:45:59.225Z,8.77
2018-07-25T23:48:27.730Z,8.67
2018-07-25T23:50:56.291Z,9.00
2018-07-25T23:53:24.873Z,7.93
2018-07-25T23:55:53.402Z,7.73
2018-07-25T23:58:21.889Z,9.40
